Time;durP1;ratioP1;P1;durP2;ratioP2;P2;SDS_P1;SDS_P2;PMS_P1;PMS_P2;Temp;Humidity;BMP_temperature;BMP_pressure;BME280_temperature;BME280_humidity;BME280_pressure;Samples;Min_cycle;Max_cycle;Signal;HPM_P1;HPM_P2
2023/02/04 00:01:04;;;;;;;9.45;2.58;;;;;;;3.91;98.50;99410.72;4192200;28;20072;-75
2023/02/04 00:03:05;;;;;;;13.30;3.47;;;;;;;3.89;99.22;99422.00;4191763;28;20106;-75
2023/02/04 00:05:06;;;;;;;16.60;2.83;;;;;;;3.92;98.55;99426.03;4192487;28;20400;-75
2023/02/04 00:07:06;;;;;;;11.50;2.38;;;;;;;3.89;98.46;99419.25;4192077;28;20064;-75
2023/02/04 00:09:06;;;;;;;12.48;2.63;;;;;;;3.82;99.22;99423.53;4191831;28;20480;-75
2023/02/04 00:11:07;;;;;;;10.68;2.50;;;;;;;3.87;98.76;99431.59;4199330;28;20153;-75
2023/02/04 00:13:07;;;;;;;12.05;2.63;;;;;;;3.88;98.28;99433.22;4192362;28;20484;-75
2023/02/04 00:15:09;;;;;;;10.05;3.28;;;;;;;3.90;99.14;99431.81;4192620;28;20189;-75
2023/02/04 00:17:11;;;;;;;8.07;1.98;;;;;;;3.94;97.89;99453.91;4192405;28;20117;-76
2023/02/04 00:19:12;;;;;;;12.32;2.25;;;;;;;3.93;98.02;99444.06;4192145;28;21284;-75
2023/02/04 00:21:12;;;;;;;8.23;2.03;;;;;;;3.86;98.46;99447.22;4192133;28;20036;-75
2023/02/04 00:23:12;;;;;;;10.57;2.47;;;;;;;3.89;99.33;99438.41;4191487;28;20090;-75
2023/02/04 00:25:13;;;;;;;12.52;2.92;;;;;;;3.90;98.52;99442.78;4192029;28;20391;-75
2023/02/04 00:27:13;;;;;;;7.50;2.13;;;;;;;3.89;96.79;99465.78;4191570;28;20059;-75
2023/02/04 00:29:14;;;;;;;11.80;3.25;;;;;;;3.96;96.38;99454.38;4192063;28;20044;-75
2023/02/04 00:31:14;;;;;;;9.27;2.55;;;;;;;3.92;96.68;99451.47;4195708;28;20044;-75
2023/02/04 00:33:14;;;;;;;6.60;1.90;;;;;;;3.95;96.61;99470.00;4192883;28;20048;-76
2023/02/04 00:35:15;;;;;;;8.80;3.10;;;;;;;3.85;97.21;99462.03;4190701;28;20060;-75
2023/02/04 00:37:15;;;;;;;8.98;2.22;;;;;;;3.81;97.54;99460.25;4193892;28;20071;-75
2023/02/04 00:39:15;;;;;;;4.35;1.55;;;;;;;3.80;96.62;99466.81;4195463;28;20431;-75
2023/02/04 00:41:15;;;;;;;7.57;2.22;;;;;;;3.83;95.94;99474.44;4196620;28;20487;-75
2023/02/04 00:43:16;;;;;;;9.55;2.03;;;;;;;3.78;96.35;99491.75;4191291;28;20599;-75
2023/02/04 00:45:16;;;;;;;9.20;1.80;;;;;;;3.81;96.76;99484.88;4192284;28;20134;-75
2023/02/04 00:47:16;;;;;;;5.32;1.55;;;;;;;3.87;96.35;99484.44;4191037;28;20177;-75
2023/02/04 00:49:17;;;;;;;10.50;1.88;;;;;;;3.77;97.02;99483.88;4191786;28;20036;-76
2023/02/04 00:51:17;;;;;;;6.57;1.67;;;;;;;3.75;96.64;99481.44;4192248;28;20087;-76
2023/02/04 00:53:17;;;;;;;6.97;1.88;;;;;;;3.79;96.70;99485.16;4191308;28;20139;-75
2023/02/04 00:55:18;;;;;;;7.95;1.90;;;;;;;3.73;96.98;99488.34;4193629;28;20456;-75
2023/02/04 00:57:18;;;;;;;8.27;1.95;;;;;;;3.74;96.37;99490.78;4193928;28;20056;-75
2023/02/04 00:59:18;;;;;;;11.30;2.38;;;;;;;3.73;96.94;99489.16;4191865;28;20489;-75
2023/02/04 01:01:19;;;;;;;4.82;1.95;;;;;;;3.74;97.03;99500.91;4191397;28;20059;-75
2023/02/04 01:03:19;;;;;;;7.57;2.28;;;;;;;3.70;96.99;99500.72;4190999;28;20529;-75
2023/02/04 01:05:19;;;;;;;9.27;2.35;;;;;;;3.68;97.48;99494.75;4191639;28;20036;-75
2023/02/04 01:07:20;;;;;;;10.73;2.17;;;;;;;3.63;97.46;99494.84;4191477;28;20035;-75
2023/02/04 01:09:20;;;;;;;7.93;2.13;;;;;;;3.65;97.75;99509.06;4191598;28;20113;-75
2023/02/04 01:11:20;;;;;;;14.73;2.22;;;;;;;3.65;97.46;99504.38;4197476;28;20059;-75
2023/02/04 01:13:21;;;;;;;12.10;3.13;;;;;;;3.66;97.71;99513.41;4190651;28;20064;-75
2023/02/04 01:15:21;;;;;;;11.50;2.20;;;;;;;3.73;97.34;99526.69;4191496;28;20500;-75
2023/02/04 01:17:22;;;;;;;15.70;1.85;;;;;;;3.76;97.14;99521.38;4190968;28;20056;-75
2023/02/04 01:19:22;;;;;;;8.00;2.00;;;;;;;3.80;96.86;99518.81;4191372;28;20062;-75
2023/02/04 01:21:23;;;;;;;9.45;2.53;;;;;;;3.79;97.09;99539.13;4191721;28;20040;-75
2023/02/04 01:23:23;;;;;;;9.25;2.05;;;;;;;3.73;97.39;99538.44;4190367;28;20040;-75
2023/02/04 01:25:23;;;;;;;4.82;1.65;;;;;;;3.70;98.06;99533.56;4193372;28;20067;-75
2023/02/04 01:27:25;;;;;;;12.75;2.45;;;;;;;3.64;97.94;99554.75;4193518;28;20144;-75
2023/02/04 01:29:25;;;;;;;6.68;1.70;;;;;;;3.65;98.96;99558.31;4195142;28;20396;-75
2023/02/04 01:31:25;;;;;;;5.68;2.15;;;;;;;3.66;98.25;99559.94;4193310;28;20056;-75
2023/02/04 01:33:26;;;;;;;9.10;2.08;;;;;;;3.66;98.53;99565.41;4190413;28;20491;-75
2023/02/04 01:35:26;;;;;;;12.43;2.03;;;;;;;3.65;98.72;99575.53;4192035;28;20115;-75
2023/02/04 01:37:26;;;;;;;8.80;1.92;;;;;;;3.64;99.37;99581.28;4191029;28;20041;-75
2023/02/04 01:39:27;;;;;;;11.77;2.22;;;;;;;3.60;99.19;99592.06;4191150;28;20044;-75
2023/02/04 01:41:27;;;;;;;10.73;2.35;;;;;;;3.61;99.71;99599.16;4191083;28;20044;-75
2023/02/04 01:43:27;;;;;;;14.00;2.55;;;;;;;3.60;99.46;99592.06;4190365;28;20388;-75
2023/02/04 01:45:29;;;;;;;7.05;1.95;;;;;;;3.62;100.00;99605.44;4190753;28;20041;-75
2023/02/04 01:47:29;;;;;;;12.80;2.53;;;;;;;3.57;100.00;99609.09;4190915;28;20044;-75
2023/02/04 01:49:30;;;;;;;11.00;2.08;;;;;;;3.49;100.00;99626.22;4193150;28;20270;-75
2023/02/04 01:51:31;;;;;;;16.00;4.15;;;;;;;3.45;100.00;99618.91;4190954;28;20044;-75
2023/02/04 01:53:33;;;;;;;12.70;2.70;;;;;;;3.47;100.00;99617.47;4195191;28;20036;-75
2023/02/04 01:55:33;;;;;;;17.00;3.08;;;;;;;3.44;100.00;99620.84;4191164;28;20194;-75
2023/02/04 01:57:35;;;;;;;12.27;2.35;;;;;;;3.41;100.00;99620.63;4190786;28;20076;-75
2023/02/04 01:59:39;;;;;;;12.98;2.42;;;;;;;3.37;100.00;99634.91;4190897;28;20419;-75
2023/02/04 02:01:45;;;;;;;16.17;4.70;;;;;;;3.29;100.00;99623.84;4189892;28;20071;-75
2023/02/04 02:03:46;;;;;;;13.63;2.63;;;;;;;3.23;100.00;99633.28;4195538;28;20492;-75
2023/02/04 02:05:49;;;;;;;14.50;2.33;;;;;;;3.09;100.00;99625.03;4190558;28;20052;-75
2023/02/04 02:07:52;;;;;;;9.05;3.00;;;;;;;2.95;100.00;99635.13;4190020;28;20049;-75
2023/02/04 02:09:53;;;;;;;9.23;2.00;;;;;;;2.88;100.00;99637.44;4190594;28;20049;-75
2023/02/04 02:11:53;;;;;;;7.40;1.58;;;;;;;2.79;100.00;99640.84;4190949;28;20041;-75
2023/02/04 02:13:54;;;;;;;6.53;1.88;;;;;;;2.81;100.00;99646.84;4189748;28;20037;-75
2023/02/04 02:15:54;;;;;;;7.72;1.70;;;;;;;2.75;100.00;99653.50;4190489;28;20075;-75
2023/02/04 02:17:55;;;;;;;9.00;1.83;;;;;;;2.81;100.00;99654.22;4191536;28;20064;-75
2023/02/04 02:19:55;;;;;;;9.75;1.60;;;;;;;2.78;100.00;99657.56;4190391;28;20048;-75
2023/02/04 02:22:10;;;;;;;8.13;1.20;;;;;;;2.77;100.00;99661.41;4189645;28;20473;-75
2023/02/04 02:24:32;;;;;;;9.95;2.20;;;;;;;2.72;100.00;99680.59;4189480;28;20123;-75
2023/02/04 02:26:32;;;;;;;7.07;2.17;;;;;;;2.68;100.00;99685.84;4190076;28;20044;-75
2023/02/04 02:28:33;;;;;;;10.20;1.95;;;;;;;2.67;100.00;99681.50;4190039;28;20141;-75
2023/02/04 02:30:33;;;;;;;7.93;1.88;;;;;;;2.69;100.00;99689.41;4190473;28;20370;-75
2023/02/04 02:32:34;;;;;;;4.75;1.52;;;;;;;2.74;100.00;99692.06;4190225;28;20427;-75
2023/02/04 02:34:35;;;;;;;9.55;2.30;;;;;;;2.77;100.00;99694.19;4190557;28;20041;-74
2023/02/04 02:36:35;;;;;;;9.15;2.45;;;;;;;2.72;100.00;99695.06;4194471;28;20196;-75
2023/02/04 02:38:36;;;;;;;10.35;2.15;;;;;;;2.73;100.00;99702.19;4191870;28;20530;-75
2023/02/04 02:40:37;;;;;;;7.18;2.13;;;;;;;2.71;100.00;99706.31;4195771;28;20097;-75
2023/02/04 02:42:38;;;;;;;9.43;2.22;;;;;;;2.71;100.00;99712.56;4189314;28;20620;-75
2023/02/04 02:44:39;;;;;;;7.43;2.22;;;;;;;2.82;100.00;99705.06;4190194;28;20510;-75
2023/02/04 02:46:39;;;;;;;9.77;2.13;;;;;;;2.80;100.00;99716.25;4190609;28;20052;-75
2023/02/04 02:48:39;;;;;;;7.22;2.60;;;;;;;2.72;100.00;99713.38;4191018;28;20188;-75
2023/02/04 02:50:41;;;;;;;12.57;2.63;;;;;;;2.72;100.00;99721.59;4199432;28;20037;-75
2023/02/04 02:52:42;;;;;;;15.80;1.97;;;;;;;2.71;100.00;99709.84;4189632;28;20127;-75
2023/02/04 02:54:42;;;;;;;9.80;2.42;;;;;;;2.77;100.00;99724.25;4190265;28;20333;-75
2023/02/04 02:56:42;;;;;;;8.02;2.50;;;;;;;2.80;100.00;99715.44;4190315;28;20131;-75
2023/02/04 02:58:42;;;;;;;7.88;1.85;;;;;;;2.87;100.00;99720.56;4189939;28;20214;-75
2023/02/04 03:00:43;;;;;;;11.93;2.10;;;;;;;2.87;100.00;99728.75;4190365;28;20036;-75
2023/02/04 03:02:48;;;;;;;10.98;2.22;;;;;;;2.75;100.00;99765.56;4189754;28;20043;-75
2023/02/04 03:04:56;;;;;;;2.15;1.33;;;;;;;2.42;100.00;99766.56;4191988;28;20048;-75
2023/02/04 03:06:57;;;;;;;1.33;1.00;;;;;;;2.17;100.00;99771.22;4193198;28;20074;-75
2023/02/04 03:08:57;;;;;;;1.02;0.80;;;;;;;1.95;100.00;99770.91;4196912;28;20448;-76
2023/02/04 03:10:57;;;;;;;1.17;1.00;;;;;;;1.74;100.00;99780.41;4193866;28;20056;-76
2023/02/04 03:12:58;;;;;;;0.80;0.80;;;;;;;1.57;100.00;99784.41;4192357;28;20040;-76
2023/02/04 03:14:59;;;;;;;1.45;0.80;;;;;;;1.51;100.00;99790.19;4195589;28;20075;-76
2023/02/04 03:17:03;;;;;;;1.00;0.90;;;;;;;1.45;100.00;99783.16;4193301;28;20044;-75
2023/02/04 03:19:05;;;;;;;2.08;1.17;;;;;;;1.27;100.00;99795.56;4196029;28;20048;-75
2023/02/04 03:21:06;;;;;;;0.90;0.90;;;;;;;1.16;100.00;99791.28;4191831;28;20412;-76
2023/02/04 03:23:07;;;;;;;1.10;1.00;;;;;;;1.10;100.00;99798.69;4192877;28;20045;-75
2023/02/04 03:25:07;;;;;;;1.15;0.85;;;;;;;1.05;100.00;99801.44;4192238;28;20036;-76
2023/02/04 03:27:08;;;;;;;2.22;1.15;;;;;;;0.96;100.00;99814.84;4194049;28;20053;-76
2023/02/04 03:29:09;;;;;;;0.77;0.75;;;;;;;0.96;100.00;99816.78;4194560;28;20551;-75
2023/02/04 03:31:09;;;;;;;1.30;0.85;;;;;;;0.99;100.00;99818.91;4193292;28;20094;-75
2023/02/04 03:33:09;;;;;;;1.17;0.90;;;;;;;1.01;100.00;99814.03;4194601;28;20064;-76
2023/02/04 03:35:10;;;;;;;1.17;1.00;;;;;;;1.01;100.00;99820.28;4192837;28;20056;-75
2023/02/04 03:37:10;;;;;;;0.98;0.80;;;;;;;1.00;100.00;99815.13;4193503;28;20525;-76
2023/02/04 03:39:10;;;;;;;1.10;0.75;;;;;;;1.04;100.00;99827.88;4192883;28;20044;-75
2023/02/04 03:41:11;;;;;;;1.23;0.90;;;;;;;1.07;100.00;99827.31;4192635;28;20063;-75
2023/02/04 03:43:11;;;;;;;0.70;0.70;;;;;;;1.09;100.00;99838.78;4198435;28;20129;-75
2023/02/04 03:45:12;;;;;;;0.95;0.75;;;;;;;1.16;100.00;99838.47;4192486;28;20229;-76
2023/02/04 03:47:12;;;;;;;1.42;0.90;;;;;;;1.20;100.00;99850.41;4195151;28;20098;-75
2023/02/04 03:49:12;;;;;;;1.65;0.80;;;;;;;1.22;100.00;99855.56;4192982;28;20266;-75
2023/02/04 03:51:12;;;;;;;1.17;1.00;;;;;;;1.21;100.00;99859.41;4192723;28;20317;-76
2023/02/04 03:53:13;;;;;;;0.90;0.90;;;;;;;1.18;100.00;99849.88;4191846;28;20097;-75
2023/02/04 03:55:14;;;;;;;1.50;1.13;;;;;;;1.18;100.00;99858.06;4191843;28;20364;-75
2023/02/04 03:57:17;;;;;;;1.30;1.00;;;;;;;1.20;100.00;99865.97;4193309;28;20105;-76
2023/02/04 03:59:17;;;;;;;1.52;1.20;;;;;;;1.20;100.00;99868.69;4197873;28;20066;-76
2023/02/04 04:01:17;;;;;;;1.92;0.98;;;;;;;1.26;100.00;99873.00;4192480;28;20037;-76
2023/02/04 04:03:17;;;;;;;2.42;1.48;;;;;;;1.20;100.00;99876.88;4192113;28;20327;-76
2023/02/04 04:05:18;;;;;;;1.88;1.23;;;;;;;1.18;100.00;99895.41;4197460;28;20044;-76
2023/02/04 04:07:18;;;;;;;2.10;1.40;;;;;;;1.15;100.00;99891.31;4192909;28;20355;-75
2023/02/04 04:09:18;;;;;;;2.03;1.50;;;;;;;1.09;100.00;99887.03;4192508;28;20048;-76
2023/02/04 04:11:20;;;;;;;4.03;1.55;;;;;;;1.06;100.00;99903.91;4192720;28;20051;-75
2023/02/04 04:13:21;;;;;;;1.73;1.15;;;;;;;1.06;100.00;99907.47;4192006;28;20439;-76
2023/02/04 04:15:21;;;;;;;2.53;1.38;;;;;;;1.09;100.00;99906.91;4193867;28;20059;-76
2023/02/04 04:17:21;;;;;;;2.63;1.58;;;;;;;1.10;100.00;99911.28;4193047;28;20084;-75
2023/02/04 04:19:23;;;;;;;3.75;1.70;;;;;;;1.13;100.00;99909.88;4197697;28;20037;-76
2023/02/04 04:21:23;;;;;;;4.13;1.60;;;;;;;1.13;100.00;99916.16;4192141;28;20045;-76
2023/02/04 04:23:24;;;;;;;2.92;1.63;;;;;;;1.13;100.00;99920.78;4192135;28;20044;-76
2023/02/04 04:25:24;;;;;;;1.65;1.30;;;;;;;1.17;100.00;99929.25;4194049;28;20407;-76
2023/02/04 04:27:25;;;;;;;2.50;1.50;;;;;;;1.19;100.00;99930.56;4192203;28;20048;-75
2023/02/04 04:29:25;;;;;;;2.35;1.35;;;;;;;1.22;100.00;99927.28;4194785;28;20040;-75
2023/02/04 04:31:25;;;;;;;1.77;1.13;;;;;;;1.19;100.00;99932.50;4192513;28;20157;-75
2023/02/04 04:33:26;;;;;;;1.98;1.30;;;;;;;1.17;100.00;99940.16;4191560;28;20068;-76
2023/02/04 04:35:26;;;;;;;1.60;1.20;;;;;;;1.28;100.00;99941.72;4191605;28;20362;-75
2023/02/04 04:37:26;;;;;;;2.55;1.42;;;;;;;1.27;100.00;99940.09;4195758;28;20060;-75
2023/02/04 04:39:27;;;;;;;1.63;1.20;;;;;;;1.30;100.00;99947.69;4191655;28;20087;-76
2023/02/04 04:41:27;;;;;;;1.60;1.13;;;;;;;1.28;100.00;99955.34;4192022;28;20044;-75
2023/02/04 04:43:27;;;;;;;1.52;1.10;;;;;;;1.28;100.00;99958.88;4191700;28;20044;-76
2023/02/04 04:45:28;;;;;;;1.35;1.25;;;;;;;1.29;100.00;99967.88;4190732;28;20141;-76
2023/02/04 04:47:28;;;;;;;1.63;1.20;;;;;;;1.24;100.00;99965.16;4195856;28;20163;-75
2023/02/04 04:49:28;;;;;;;1.45;1.17;;;;;;;1.28;100.00;99960.78;4191771;28;20048;-75
2023/02/04 04:51:31;;;;;;;3.50;1.40;;;;;;;1.25;100.00;99980.44;4194159;28;20051;-75
2023/02/04 04:53:31;;;;;;;;;;;;;;;1.22;100.00;99973.63;4193301;28;20431;-75
2023/02/04 04:55:32;;;;;;;1.70;1.20;;;;;;;1.21;100.00;99979.38;4191769;28;19912;-76
2023/02/04 04:57:33;;;;;;;2.38;1.20;;;;;;;1.24;100.00;99976.06;4191679;28;20125;-75
2023/02/04 04:59:33;;;;;;;2.55;1.30;;;;;;;1.26;100.00;99980.16;4191624;28;20467;-75
2023/02/04 05:01:33;;;;;;;1.40;1.10;;;;;;;1.21;100.00;99998.44;4191669;28;20045;-75
2023/02/04 05:03:34;;;;;;;2.08;1.40;;;;;;;1.18;100.00;99999.03;4190739;28;20041;-75
2023/02/04 05:05:38;;;;;;;2.53;1.45;;;;;;;1.15;100.00;100005.81;4195595;28;20508;-75
2023/02/04 05:07:39;;;;;;;2.40;1.40;;;;;;;1.09;100.00;100009.69;4191277;28;20530;-75
2023/02/04 05:09:39;;;;;;;1.75;1.40;;;;;;;1.16;100.00;100023.00;4191333;28;20139;-75
2023/02/04 05:11:39;;;;;;;2.35;1.40;;;;;;;1.10;100.00;100020.31;4191532;28;20642;-75
2023/02/04 05:13:40;;;;;;;1.88;1.40;;;;;;;1.07;100.00;100018.13;4191040;28;20051;-75
2023/02/04 05:15:41;;;;;;;2.53;1.60;;;;;;;1.03;100.00;100025.22;4191335;28;20056;-75
2023/02/04 05:17:41;;;;;;;1.88;1.40;;;;;;;1.05;100.00;100025.75;4191024;28;20053;-75
2023/02/04 05:19:41;;;;;;;2.33;1.63;;;;;;;0.99;100.00;100026.06;4191751;28;20105;-75
2023/02/04 05:21:42;;;;;;;3.85;1.50;;;;;;;1.00;100.00;100023.06;4197000;28;20036;-75
2023/02/04 05:23:42;;;;;;;2.00;1.55;;;;;;;0.99;100.00;100013.22;4190283;28;20068;-75
2023/02/04 05:25:42;;;;;;;2.33;1.40;;;;;;;0.97;100.00;100026.34;4197669;28;20054;-75
2023/02/04 05:27:43;;;;;;;3.08;1.77;;;;;;;0.93;100.00;100022.53;4190490;28;20476;-75
2023/02/04 05:29:44;;;;;;;2.08;1.38;;;;;;;0.88;100.00;100035.34;4190899;28;20488;-75
2023/02/04 05:31:44;;;;;;;2.60;1.60;;;;;;;0.86;100.00;100043.81;4191560;28;20142;-75
2023/02/04 05:33:44;;;;;;;2.30;1.60;;;;;;;0.89;100.00;100050.63;4190571;28;20072;-75
2023/02/04 05:35:46;;;;;;;2.08;1.58;;;;;;;0.82;100.00;100037.25;4191372;28;20141;-75
2023/02/04 05:37:46;;;;;;;2.05;1.60;;;;;;;0.84;100.00;100054.19;4190578;28;20510;-75
2023/02/04 05:39:46;;;;;;;2.28;1.60;;;;;;;0.84;100.00;100055.00;4195159;28;20048;-75
2023/02/04 05:41:47;;;;;;;4.10;2.00;;;;;;;0.85;100.00;100055.81;4198143;28;20044;-75
2023/02/04 05:43:47;;;;;;;2.80;1.30;;;;;;;0.84;100.00;100059.63;4190753;28;20044;-75
2023/02/04 05:45:47;;;;;;;2.10;1.60;;;;;;;0.93;100.00;100057.16;4191223;28;20946;-75
2023/02/04 05:47:48;;;;;;;1.80;1.50;;;;;;;0.95;100.00;100066.69;4189470;28;20048;-75
2023/02/04 05:49:48;;;;;;;2.33;1.40;;;;;;;0.93;100.00;100071.59;4193215;28;20053;-75
2023/02/04 05:51:49;;;;;;;2.25;1.50;;;;;;;0.90;100.00;100068.59;4190098;28;20163;-75
2023/02/04 05:53:49;;;;;;;2.22;1.50;;;;;;;0.92;100.00;100080.88;4190316;28;20476;-75
2023/02/04 05:55:49;;;;;;;4.47;1.83;;;;;;;0.88;100.00;100078.97;4190720;28;20059;-75
2023/02/04 05:57:50;;;;;;;2.35;1.80;;;;;;;0.87;100.00;100093.69;4192205;28;20485;-75
2023/02/04 05:59:50;;;;;;;2.20;1.50;;;;;;;0.87;100.00;100090.94;4190881;28;20044;-75
2023/02/04 06:01:50;;;;;;;2.38;1.50;;;;;;;0.88;100.00;100087.13;4195989;28;20113;-75
2023/02/04 06:03:51;;;;;;;2.83;1.73;;;;;;;0.84;100.00;100095.88;4190303;28;20048;-75
2023/02/04 06:05:51;;;;;;;2.45;1.58;;;;;;;0.81;100.00;100101.84;4190817;28;20053;-75
2023/02/04 06:07:51;;;;;;;2.45;1.67;;;;;;;0.75;100.00;100108.41;4190314;28;20037;-75
2023/02/04 06:09:52;;;;;;;2.35;1.60;;;;;;;0.75;100.00;100104.88;4191035;28;20067;-75
2023/02/04 06:11:52;;;;;;;2.00;1.70;;;;;;;0.70;100.00;100104.88;4191027;28;20048;-75
2023/02/04 06:13:52;;;;;;;4.43;1.77;;;;;;;0.70;100.00;100110.31;4189835;28;20110;-75
2023/02/04 06:15:53;;;;;;;2.40;1.77;;;;;;;0.67;100.00;100110.88;4190255;28;20045;-74
2023/02/04 06:17:53;;;;;;;3.00;1.83;;;;;;;0.64;100.00;100112.22;4190733;28;20585;-74
2023/02/04 06:19:54;;;;;;;2.13;1.70;;;;;;;0.61;100.00;100131.03;4195735;28;20072;-75
2023/02/04 06:21:54;;;;;;;3.88;1.73;;;;;;;0.62;100.00;100138.91;4189499;28;20095;-75
2023/02/04 06:23:55;;;;;;;2.63;1.85;;;;;;;0.64;100.00;100131.28;4189905;28;20048;-75
2023/02/04 06:25:55;;;;;;;2.70;1.73;;;;;;;0.66;100.00;100152.78;4190710;28;20056;-75
2023/02/04 06:27:55;;;;;;;3.03;2.20;;;;;;;0.67;100.00;100146.28;4197171;28;20481;-75
2023/02/04 06:29:56;;;;;;;3.90;2.20;;;;;;;0.71;100.00;100160.97;4190465;28;20066;-75
2023/02/04 06:31:56;;;;;;;3.83;2.10;;;;;;;0.71;100.00;100159.06;4195335;28;20544;-75
2023/02/04 06:33:56;;;;;;;3.05;1.88;;;;;;;0.68;100.00;100164.25;4191006;28;20045;-75
2023/02/04 06:35:57;;;;;;;2.28;1.70;;;;;;;0.68;100.00;100153.38;4190601;28;20037;-75
2023/02/04 06:37:57;;;;;;;3.00;2.17;;;;;;;0.66;100.00;100160.97;4194222;28;20051;-75
2023/02/04 06:39:57;;;;;;;5.13;2.50;;;;;;;0.66;100.00;100175.41;4192968;28;20044;-75
2023/02/04 06:41:58;;;;;;;3.63;2.15;;;;;;;0.61;100.00;100163.72;4189464;28;20737;-75
2023/02/04 06:43:58;;;;;;;6.05;2.70;;;;;;;0.57;100.00;100164.22;4190442;28;20041;-75
2023/02/04 06:45:58;;;;;;;4.88;2.53;;;;;;;0.58;100.00;100173.25;4190927;28;20145;-75
2023/02/04 06:47:59;;;;;;;2.50;1.88;;;;;;;0.56;100.00;100167.22;4193540;28;20057;-75
2023/02/04 06:49:59;;;;;;;2.58;1.67;;;;;;;0.53;100.00;100165.88;4193903;28;20353;-75
2023/02/04 06:51:59;;;;;;;3.75;2.03;;;;;;;0.53;100.00;100165.88;4184931;28;20068;-75
2023/02/04 06:54:00;;;;;;;2.55;1.90;;;;;;;0.54;100.00;100183.03;4187776;28;20032;-75
2023/02/04 06:56:00;;;;;;;2.65;1.60;;;;;;;0.52;100.00;100191.47;4192616;28;20098;-75
2023/02/04 06:58:01;;;;;;;2.45;1.80;;;;;;;0.51;100.00;100197.19;4189883;28;20109;-75
2023/02/04 07:00:01;;;;;;;3.03;1.60;;;;;;;0.47;100.00;100194.19;4193384;28;20469;-75
2023/02/04 07:02:03;;;;;;;2.13;1.70;;;;;;;0.52;100.00;100194.19;4186032;28;20035;-75
2023/02/04 07:04:03;;;;;;;3.40;2.13;;;;;;;0.53;100.00;100192.28;4194699;28;20025;-75
2023/02/04 07:06:04;;;;;;;1.90;1.55;;;;;;;0.59;100.00;100201.31;4198861;28;20059;-75
2023/02/04 07:08:04;;;;;;;3.33;1.73;;;;;;;0.52;100.00;100194.19;4188695;28;20021;-75
2023/02/04 07:10:05;;;;;;;2.03;1.58;;;;;;;0.53;100.00;100189.56;4188330;28;20029;-75
2023/02/04 07:12:05;;;;;;;2.55;1.98;;;;;;;0.49;100.00;100191.19;4195656;28;20028;-74
2023/02/04 07:14:06;;;;;;;3.10;1.98;;;;;;;0.49;100.00;100211.06;4192269;28;20043;-74
2023/02/04 07:16:06;;;;;;;2.40;1.50;;;;;;;0.44;100.00;100208.34;4186745;28;20024;-75
2023/02/04 07:18:07;;;;;;;4.45;3.50;;;;;;;0.42;100.00;100209.72;4197716;28;20040;-74
2023/02/04 07:20:08;;;;;;;3.33;2.38;;;;;;;0.45;100.00;100212.69;4192849;28;20028;-74
2023/02/04 07:22:09;;;;;;;2.28;1.65;;;;;;;0.38;100.00;100209.41;4194413;28;20032;-74
2023/02/04 07:24:09;;;;;;;2.45;1.63;;;;;;;0.40;100.00;100215.41;4192003;28;20113;-74
2023/02/04 07:26:09;;;;;;;2.28;1.80;;;;;;;0.39;100.00;100210.22;4196307;28;20057;-74
2023/02/04 07:28:10;;;;;;;3.15;1.60;;;;;;;0.34;100.00;100219.22;4164086;28;20040;-75
2023/02/04 07:30:11;;;;;;;2.53;1.95;;;;;;;0.31;100.00;100213.47;4203229;28;20045;-75
2023/02/04 07:32:11;;;;;;;4.32;2.75;;;;;;;0.27;100.00;100222.19;4190719;28;20457;-75
2023/02/04 07:34:15;;;;;;;4.10;2.97;;;;;;;0.23;100.00;100240.13;4189969;28;20017;-75
2023/02/04 07:36:15;;;;;;;6.43;2.70;;;;;;;0.16;100.00;100236.84;4193118;28;20124;-75
2023/02/04 07:38:15;;;;;;;7.15;3.05;;;;;;;0.16;100.00;100238.75;4197032;28;20115;-75
2023/02/04 07:40:16;;;;;;;8.77;2.60;;;;;;;0.12;100.00;100243.91;4192544;28;20035;-75
2023/02/04 07:42:16;;;;;;;3.50;2.20;;;;;;;0.14;100.00;100244.47;4192247;28;20102;-75
2023/02/04 07:44:16;;;;;;;2.67;2.13;;;;;;;0.14;100.00;100247.19;4189297;28;20127;-75
2023/02/04 07:46:17;;;;;;;4.78;2.20;;;;;;;0.15;100.00;100243.38;4195525;28;20374;-75
2023/02/04 07:48:17;;;;;;;2.55;1.77;;;;;;;0.17;100.00;100249.38;4195239;28;20032;-75
2023/02/04 07:50:18;;;;;;;2.55;1.75;;;;;;;0.16;100.00;100253.16;4187932;28;20873;-75
2023/02/04 07:52:18;;;;;;;6.75;2.40;;;;;;;0.14;100.00;100266.22;4188537;28;20073;-75
2023/02/04 07:54:18;;;;;;;5.25;1.95;;;;;;;0.16;100.00;100264.06;4150546;28;20117;-75
2023/02/04 07:56:19;;;;;;;2.97;2.05;;;;;;;0.15;100.00;100269.78;4197745;28;20044;-74
2023/02/04 07:58:19;;;;;;;6.22;3.47;;;;;;;0.11;100.00;100277.66;4192692;28;20040;-75
2023/02/04 08:00:20;;;;;;;5.00;3.33;;;;;;;0.13;100.00;100288.28;4192516;28;20041;-74
2023/02/04 08:02:20;;;;;;;5.47;3.78;;;;;;;0.13;100.00;100282.84;4190344;28;20033;-74
2023/02/04 08:04:20;;;;;;;7.63;4.40;;;;;;;0.15;100.00;100288.81;4190756;28;20053;-75
2023/02/04 08:06:21;;;;;;;11.95;6.82;;;;;;;0.14;100.00;100288.00;4194183;28;20087;-75
2023/02/04 08:08:22;;;;;;;7.57;3.75;;;;;;;0.17;100.00;100279.31;4190774;28;20442;-75
2023/02/04 08:10:22;;;;;;;5.72;3.60;;;;;;;0.25;100.00;100284.28;4191451;28;20051;-74
2023/02/04 08:12:22;;;;;;;7.78;4.10;;;;;;;0.27;100.00;100284.00;4192006;28;20124;-75
2023/02/04 08:14:23;;;;;;;8.45;4.57;;;;;;;0.32;100.00;100294.88;4194621;28;20499;-74
2023/02/04 08:16:23;;;;;;;11.25;5.68;;;;;;;0.35;100.00;100293.56;4190215;28;20564;-74
2023/02/04 08:18:24;;;;;;;4.57;3.10;;;;;;;0.39;100.00;100297.38;4191313;28;20098;-74
2023/02/04 08:20:24;;;;;;;3.83;2.40;;;;;;;0.43;100.00;100303.94;4190349;28;20540;-74
2023/02/04 08:22:24;;;;;;;2.97;2.20;;;;;;;0.50;100.00;100302.59;4190673;28;20051;-74
2023/02/04 08:24:24;;;;;;;3.63;2.22;;;;;;;0.52;100.00;100305.06;4186583;28;20091;-74
2023/02/04 08:26:25;;;;;;;3.03;2.30;;;;;;;0.50;100.00;100305.31;4196656;28;20040;-74
2023/02/04 08:28:25;;;;;;;4.07;2.00;;;;;;;0.50;100.00;100305.31;4190745;28;21425;-75
2023/02/04 08:30:25;;;;;;;2.40;2.00;;;;;;;0.53;100.00;100310.22;4191898;28;20088;-75
2023/02/04 08:32:28;;;;;;;2.40;2.17;;;;;;;0.53;100.00;100312.94;4193514;28;20048;-74
2023/02/04 08:34:28;;;;;;;2.72;2.10;;;;;;;0.58;100.00;100328.50;4191157;28;20094;-74
2023/02/04 08:36:29;;;;;;;3.50;2.10;;;;;;;0.61;100.00;100336.13;4191614;28;20037;-74
2023/02/04 08:38:30;;;;;;;2.55;2.10;;;;;;;0.67;100.00;100337.81;4187236;28;20101;-74
2023/02/04 08:40:30;;;;;;;3.15;2.42;;;;;;;0.67;100.00;100347.88;4189766;28;20048;-74
2023/02/04 08:42:31;;;;;;;2.42;1.83;;;;;;;0.71;100.00;100346.25;4189711;28;20044;-74
2023/02/04 08:44:31;;;;;;;2.20;1.92;;;;;;;0.71;100.00;100346.25;4186929;28;20052;-74
2023/02/04 08:46:31;;;;;;;2.90;1.90;;;;;;;0.70;100.00;100363.69;4190432;28;20339;-74
2023/02/04 08:48:32;;;;;;;1.75;1.63;;;;;;;0.72;100.00;100362.31;4192984;28;20067;-74
2023/02/04 08:50:32;;;;;;;2.47;2.17;;;;;;;0.70;100.00;100359.06;4198699;28;20048;-74
2023/02/04 08:52:32;;;;;;;3.28;1.90;;;;;;;0.72;100.00;100356.88;4192357;28;20041;-74
2023/02/04 08:54:33;;;;;;;3.20;1.60;;;;;;;0.73;100.00;100363.94;4191843;28;20104;-74
2023/02/04 08:56:34;;;;;;;2.92;2.10;;;;;;;0.68;100.00;100372.13;4196479;28;20194;-74
2023/02/04 08:58:34;;;;;;;2.70;2.00;;;;;;;0.70;100.00;100372.66;4190498;28;20079;-74
2023/02/04 09:00:35;;;;;;;2.17;1.73;;;;;;;0.73;100.00;100382.22;4194764;28;20059;-74
2023/02/04 09:02:35;;;;;;;2.92;1.75;;;;;;;0.76;100.00;100384.41;4188971;28;20271;-74
2023/02/04 09:04:36;;;;;;;2.67;1.83;;;;;;;0.72;100.00;100380.56;4193407;28;20049;-74
2023/02/04 09:06:36;;;;;;;3.97;2.05;;;;;;;0.80;100.00;100389.06;4191543;28;20531;-74
2023/02/04 09:08:37;;;;;;;3.22;1.73;;;;;;;0.86;100.00;100389.06;4191687;28;20040;-74
2023/02/04 09:10:37;;;;;;;3.10;1.98;;;;;;;0.85;100.00;100391.00;4193968;28;20044;-74
2023/02/04 09:12:37;;;;;;;4.63;2.13;;;;;;;0.85;100.00;100391.00;4190256;28;20409;-75
2023/02/04 09:14:38;;;;;;;4.30;2.20;;;;;;;0.86;100.00;100391.81;4195783;28;20123;-74
2023/02/04 09:16:38;;;;;;;4.03;2.85;;;;;;;0.89;100.00;100391.25;4189289;28;20054;-74
2023/02/04 09:18:39;;;;;;;3.05;2.00;;;;;;;0.92;100.00;100397.00;4194376;28;20040;-74
2023/02/04 09:20:39;;;;;;;3.45;2.35;;;;;;;0.94;100.00;100392.09;4194133;28;20427;-74
2023/02/04 09:22:40;;;;;;;4.90;3.13;;;;;;;0.95;100.00;100401.91;4189330;28;20103;-74
2023/02/04 09:24:40;;;;;;;3.33;2.10;;;;;;;0.96;100.00;100391.81;4191114;28;20052;-74